createdAt,value
2019-05-03T00:02:24.857Z,5.40
2019-05-03T00:05:02.494Z,5.93
2019-05-03T00:07:33.806Z,5.53
2019-05-03T00:10:04.652Z,5.43
2019-05-03T00:12:37.272Z,5.50
2019-05-03T00:15:32.995Z,5.93
2019-05-03T00:18:03.286Z,5.37
2019-05-03T00:20:33.808Z,5.67
2019-05-03T00:23:04.076Z,6.40
2019-05-03T00:25:34.384Z,5.47
2019-05-03T00:28:05.418Z,5.27
2019-05-03T00:30:36.191Z,6.17
2019-05-03T00:33:06.708Z,5.57
2019-05-03T00:35:55.042Z,5.60
2019-05-03T00:38:25.608Z,5.93
2019-05-03T00:40:55.883Z,5.50
2019-05-03T00:43:26.193Z,6.60
2019-05-03T00:45:56.512Z,6.00
2019-05-03T00:48:26.917Z,6.07
2019-05-03T00:50:57.251Z,6.33
2019-05-03T00:53:27.561Z,6.47
2019-05-03T00:55:57.875Z,5.83
2019-05-03T00:58:28.484Z,6.00
2019-05-03T01:00:58.833Z,5.80
2019-05-03T01:03:29.230Z,5.40
2019-05-03T01:05:59.577Z,5.70
2019-05-03T01:08:30.192Z,6.17
2019-05-03T01:11:02.133Z,5.67
2019-05-03T01:13:32.520Z,5.37
2019-05-03T01:16:07.677Z,6.23
2019-05-03T01:18:37.939Z,6.40
2019-05-03T01:21:08.367Z,6.83
2019-05-03T01:23:38.656Z,6.30
2019-05-03T01:26:08.986Z,6.80
2019-05-03T01:28:39.569Z,6.77
2019-05-03T01:31:11.863Z,6.33
2019-05-03T01:33:42.646Z,6.63
2019-05-03T01:36:13.070Z,5.97
2019-05-03T01:38:43.735Z,6.60
2019-05-03T01:41:14.373Z,6.90
2019-05-03T01:43:44.670Z,7.03
2019-05-03T01:46:15.330Z,6.87
2019-05-03T01:49:17.271Z,6.13
2019-05-03T01:52:25.175Z,7.80
2019-05-03T01:54:55.468Z,6.53
2019-05-03T01:57:26.139Z,7.00
2019-05-03T01:59:56.455Z,6.47
2019-05-03T02:02:58.163Z,6.27
2019-05-03T02:05:46.486Z,6.27
2019-05-03T02:08:16.769Z,6.00
2019-05-03T02:10:47.040Z,6.33
2019-05-03T02:13:17.354Z,6.57
2019-05-03T02:15:48.310Z,6.00
2019-05-03T02:18:18.625Z,7.00
2019-05-03T02:20:48.904Z,6.67
2019-05-03T02:23:19.592Z,6.30
2019-05-03T02:25:58.291Z,6.60
2019-05-03T02:28:22.200Z,6.03
2019-05-03T02:30:53.524Z,7.27
2019-05-03T02:33:24.197Z,7.80
2019-05-03T02:35:54.570Z,6.97
2019-05-03T02:38:25.337Z,6.60
2019-05-03T02:40:55.654Z,6.60
2019-05-03T02:43:51.452Z,7.73
2019-05-03T02:46:37.357Z,7.03
2019-05-03T02:49:29.644Z,7.27
2019-05-03T02:51:59.964Z,7.30
2019-05-03T02:54:30.618Z,6.83
2019-05-03T02:57:01.314Z,8.13
2019-05-03T02:59:32.077Z,7.73
2019-05-03T03:02:02.851Z,7.10
2019-05-03T03:04:35.345Z,7.07
2019-05-03T03:07:05.926Z,7.60
2019-05-03T03:09:36.720Z,7.80
2019-05-03T03:12:09.133Z,7.17
2019-05-03T03:14:41.580Z,7.87
2019-05-03T03:17:14.883Z,7.43
2019-05-03T03:19:48.676Z,7.50
2019-05-03T03:22:20.713Z,7.50
2019-05-03T03:24:55.940Z,8.53
2019-05-03T03:27:27.656Z,7.30
2019-05-03T03:30:29.171Z,8.17
2019-05-03T03:32:59.889Z,8.90
2019-05-03T03:35:31.170Z,7.63
2019-05-03T03:38:01.979Z,7.60
2019-05-03T03:40:32.597Z,7.30
2019-05-03T03:43:05.518Z,7.30
2019-05-03T03:45:36.980Z,7.10
2019-05-03T03:48:08.188Z,7.67
2019-05-03T03:50:39.698Z,7.37
2019-05-03T03:53:12.181Z,7.37
2019-05-03T03:55:45.952Z,8.20
2019-05-03T03:58:22.344Z,7.20
2019-05-03T04:00:49.382Z,7.87
2019-05-03T04:03:22.062Z,7.40
2019-05-03T04:05:55.374Z,7.83
2019-05-03T04:08:25.262Z,8.43
2019-05-03T04:10:55.949Z,6.83
2019-05-03T04:13:27.256Z,7.30
2019-05-03T04:16:21.158Z,7.23
2019-05-03T04:19:05.936Z,6.90
2019-05-03T04:21:36.353Z,7.60
2019-05-03T04:24:06.635Z,6.33
2019-05-03T04:26:38.262Z,7.20
2019-05-03T04:29:10.147Z,6.50
2019-05-03T04:31:40.452Z,6.77
2019-05-03T04:34:11.175Z,6.63
2019-05-03T04:36:41.531Z,7.20
2019-05-03T04:39:11.850Z,6.17
2019-05-03T04:41:45.209Z,6.73
2019-05-03T04:44:15.435Z,7.53
2019-05-03T04:46:46.599Z,6.10
2019-05-03T04:49:16.904Z,6.13
2019-05-03T04:51:48.716Z,6.20
2019-05-03T04:54:25.207Z,5.70
2019-05-03T04:56:57.365Z,6.77
2019-05-03T04:59:28.013Z,5.87
2019-05-03T05:01:58.920Z,6.00
2019-05-03T05:04:29.185Z,6.17
2019-05-03T05:06:59.837Z,5.33
2019-05-03T05:09:30.122Z,6.33
2019-05-03T05:12:00.345Z,5.57
2019-05-03T05:14:30.569Z,5.57
2019-05-03T05:17:00.780Z,5.47
2019-05-03T05:19:45.862Z,5.73
2019-05-03T05:22:17.438Z,5.43
2019-05-03T05:24:48.709Z,5.57
2019-05-03T05:27:27.156Z,6.30
2019-05-03T05:29:58.450Z,6.00
2019-05-03T05:32:28.632Z,6.00
2019-05-03T05:34:58.792Z,5.77
2019-05-03T05:37:29.071Z,5.67
2019-05-03T05:39:59.322Z,6.30
2019-05-03T05:42:29.632Z,6.03
2019-05-03T05:45:00.182Z,5.80
2019-05-03T05:47:36.557Z,6.00
2019-05-03T05:50:14.873Z,5.57
2019-05-03T05:52:45.213Z,5.93
2019-05-03T05:55:25.307Z,7.47
2019-05-03T05:58:15.691Z,6.27
2019-05-03T06:00:51.796Z,6.37
2019-05-03T06:03:22.408Z,5.47
2019-05-03T06:05:54.927Z,6.00
2019-05-03T06:08:49.696Z,6.40
2019-05-03T06:11:39.571Z,5.63
2019-05-03T06:14:24.500Z,5.63
2019-05-03T06:17:06.541Z,6.17
2019-05-03T06:19:41.117Z,5.90
2019-05-03T06:22:44.694Z,5.70
2019-05-03T06:25:28.829Z,6.57
2019-05-03T06:27:59.880Z,5.73
2019-05-03T06:30:40.513Z,5.93
2019-05-03T06:33:10.748Z,5.80
2019-05-03T06:35:41.054Z,5.87
2019-05-03T06:38:11.595Z,6.47
2019-05-03T06:40:42.176Z,5.83
2019-05-03T06:43:13.010Z,6.10
2019-05-03T06:45:46.667Z,6.13
2019-05-03T06:48:17.576Z,5.20
2019-05-03T06:50:47.172Z,5.23
2019-05-03T06:53:17.835Z,4.83
2019-05-03T06:55:48.546Z,4.00
2019-05-03T06:58:30.537Z,3.33
2019-05-03T07:01:00.955Z,3.90
2019-05-03T07:03:39.580Z,3.93
2019-05-03T07:06:47.181Z,3.37
2019-05-03T07:09:40.664Z,3.30
2019-05-03T07:12:10.888Z,3.07
2019-05-03T07:14:41.111Z,3.47
2019-05-03T07:17:11.417Z,3.10
2019-05-03T07:19:41.690Z,2.40
2019-05-03T07:22:11.969Z,3.13
2019-05-03T07:24:42.457Z,2.80
2019-05-03T07:27:13.047Z,3.13
2019-05-03T07:29:44.546Z,2.83
2019-05-03T07:32:15.613Z,2.77
2019-05-03T07:34:47.045Z,2.43
2019-05-03T07:37:17.267Z,2.83
2019-05-03T07:39:47.820Z,3.00
2019-05-03T07:42:19.358Z,3.10
2019-05-03T07:44:49.535Z,2.53
2019-05-03T07:47:20.810Z,2.37
2019-05-03T07:49:51.071Z,2.47
2019-05-03T07:52:21.263Z,2.60
2019-05-03T07:54:51.769Z,3.40
2019-05-03T07:57:35.515Z,2.80
2019-05-03T08:00:05.760Z,2.70
2019-05-03T08:02:36.180Z,2.30
2019-05-03T08:05:07.393Z,1.93
2019-05-03T08:07:37.552Z,2.53
2019-05-03T08:10:07.819Z,2.47
2019-05-03T08:12:38.941Z,2.27
2019-05-03T08:15:09.918Z,2.57
2019-05-03T08:17:40.169Z,2.70
2019-05-03T08:20:10.819Z,2.70
2019-05-03T08:22:41.439Z,2.37
2019-05-03T08:25:11.697Z,2.20
2019-05-03T08:27:41.917Z,2.70
2019-05-03T08:30:15.472Z,2.27
2019-05-03T08:33:14.772Z,2.50
2019-05-03T08:35:46.707Z,2.43
2019-05-03T08:38:16.911Z,2.93
2019-05-03T08:40:48.330Z,3.10
2019-05-03T08:43:18.586Z,3.20
2019-05-03T08:45:48.841Z,2.60
2019-05-03T08:48:19.110Z,2.80
2019-05-03T08:50:49.291Z,2.77
2019-05-03T08:53:19.475Z,2.70
2019-05-03T08:55:49.662Z,2.80
2019-05-03T08:58:19.854Z,2.07
2019-05-03T09:00:50.099Z,2.33
2019-05-03T09:03:20.364Z,2.73
2019-05-03T09:05:50.548Z,2.40
2019-05-03T09:08:20.816Z,2.90
2019-05-03T09:10:58.313Z,3.17
2019-05-03T09:13:37.898Z,2.27
2019-05-03T09:16:08.147Z,2.30
2019-05-03T09:18:38.466Z,2.63
2019-05-03T09:21:09.321Z,2.60
2019-05-03T09:23:39.544Z,2.33
2019-05-03T09:26:09.720Z,2.37
2019-05-03T09:28:39.915Z,2.73
2019-05-03T09:31:11.340Z,2.40
2019-05-03T09:33:41.582Z,2.37
2019-05-03T09:36:11.798Z,2.80
2019-05-03T09:38:42.037Z,2.20
2019-05-03T09:41:12.237Z,2.00
2019-05-03T09:43:42.547Z,2.13
2019-05-03T09:46:14.622Z,1.53
2019-05-03T09:48:45.613Z,1.70
2019-05-03T09:51:15.882Z,1.80
2019-05-03T09:53:52.666Z,2.10
2019-05-03T09:56:48.013Z,2.17
2019-05-03T09:59:14.800Z,2.00
2019-05-03T10:01:45.758Z,1.80
2019-05-03T10:04:17.998Z,1.70
2019-05-03T10:06:48.051Z,1.97
2019-05-03T10:09:18.538Z,2.10
2019-05-03T10:11:49.094Z,2.20
2019-05-03T10:14:19.351Z,2.67
2019-05-03T10:17:02.364Z,2.13
2019-05-03T10:19:37.652Z,2.30
2019-05-03T10:22:05.842Z,2.13
2019-05-03T10:24:36.358Z,2.10
2019-05-03T10:27:06.540Z,2.30
2019-05-03T10:29:36.737Z,2.77
2019-05-03T10:32:12.715Z,2.77
2019-05-03T10:34:54.751Z,2.27
2019-05-03T10:37:30.927Z,2.63
2019-05-03T10:40:05.210Z,2.70
2019-05-03T10:42:36.043Z,3.33
2019-05-03T10:45:06.862Z,3.90
2019-05-03T10:47:37.499Z,3.40
2019-05-03T10:50:08.326Z,2.70
2019-05-03T10:52:47.518Z,2.60
2019-05-03T10:55:18.135Z,2.53
2019-05-03T10:57:55.873Z,2.73
2019-05-03T11:00:49.537Z,3.07
2019-05-03T11:03:02.250Z,3.07
2019-05-03T11:05:34.706Z,3.13
2019-05-03T11:08:05.049Z,2.70
2019-05-03T11:10:35.312Z,2.80
2019-05-03T11:13:05.885Z,3.40
2019-05-03T11:15:36.245Z,2.43
2019-05-03T11:18:06.901Z,2.73
2019-05-03T11:20:37.841Z,3.57
2019-05-03T11:23:08.836Z,3.00
2019-05-03T11:25:39.117Z,2.70
2019-05-03T11:28:16.743Z,2.70
2019-05-03T11:30:55.653Z,3.70
2019-05-03T11:33:35.372Z,2.80
2019-05-03T11:36:21.915Z,3.57
2019-05-03T11:38:52.836Z,5.00
2019-05-03T11:41:32.169Z,3.20
2019-05-03T11:43:57.877Z,3.03
2019-05-03T11:46:28.136Z,3.13
2019-05-03T11:48:58.763Z,3.20
2019-05-03T11:51:28.954Z,3.13
2019-05-03T11:53:59.585Z,3.60
2019-05-03T11:56:29.800Z,3.90
2019-05-03T11:58:59.981Z,3.53
2019-05-03T12:01:47.578Z,3.40
2019-05-03T12:04:17.756Z,3.97
2019-05-03T12:06:47.918Z,3.60
2019-05-03T12:09:18.447Z,3.60
2019-05-03T12:11:48.662Z,4.70
2019-05-03T12:14:18.855Z,4.40
2019-05-03T12:17:17.152Z,3.40
2019-05-03T12:19:31.527Z,4.20
2019-05-03T12:22:02.062Z,4.13
2019-05-03T12:24:33.840Z,3.63
2019-05-03T12:27:05.347Z,3.70
2019-05-03T12:29:35.682Z,4.23
2019-05-03T12:32:06.049Z,4.03
2019-05-03T12:34:36.333Z,3.73
2019-05-03T12:37:06.610Z,3.90
2019-05-03T12:39:36.879Z,3.57
2019-05-03T12:42:07.164Z,3.87
2019-05-03T12:44:37.637Z,3.27
2019-05-03T12:47:07.929Z,3.87
2019-05-03T12:49:38.192Z,4.00
2019-05-03T12:52:10.447Z,4.03
2019-05-03T12:54:41.421Z,3.70
2019-05-03T12:57:11.921Z,3.57
2019-05-03T12:59:51.325Z,4.13
2019-05-03T13:02:27.160Z,4.03
2019-05-03T13:04:57.413Z,3.87
2019-05-03T13:07:34.769Z,4.13
2019-05-03T13:10:06.921Z,4.40
2019-05-03T13:12:49.762Z,4.47
2019-05-03T13:15:10.009Z,3.90
2019-05-03T13:17:40.219Z,4.20
2019-05-03T13:20:12.940Z,4.47
2019-05-03T13:22:45.615Z,5.33
2019-05-03T13:25:17.087Z,4.33
2019-05-03T13:27:47.273Z,4.80
2019-05-03T13:30:18.016Z,4.67
2019-05-03T13:32:48.273Z,4.90
2019-05-03T13:35:18.564Z,5.00
2019-05-03T13:37:49.506Z,4.97
2019-05-03T13:40:20.007Z,4.60
2019-05-03T13:42:57.100Z,5.10
2019-05-03T13:45:22.074Z,4.83
2019-05-03T13:47:52.620Z,4.67
2019-05-03T13:50:24.574Z,5.03
2019-05-03T13:52:55.919Z,7.07
2019-05-03T13:55:26.534Z,5.37
2019-05-03T13:57:57.022Z,4.87
2019-05-03T14:00:27.624Z,5.47
2019-05-03T14:02:57.941Z,4.93
2019-05-03T14:05:28.190Z,5.53
2019-05-03T14:07:58.389Z,5.27
2019-05-03T14:10:29.021Z,5.00
2019-05-03T14:12:59.968Z,9.17
2019-05-03T14:15:30.237Z,6.00
2019-05-03T14:18:00.465Z,4.63
2019-05-03T14:20:48.213Z,9.00
2019-05-03T14:23:18.885Z,6.60
2019-05-03T14:25:48.973Z,5.17
2019-05-03T14:28:19.227Z,5.40
2019-05-03T14:30:49.420Z,4.30
2019-05-03T14:33:19.959Z,4.93
2019-05-03T14:35:50.180Z,3.87
2019-05-03T14:38:20.700Z,4.27
2019-05-03T14:40:51.146Z,3.87
2019-05-03T14:43:21.708Z,3.50
2019-05-03T14:45:51.951Z,3.93
2019-05-03T14:48:24.639Z,6.27
2019-05-03T14:50:55.004Z,4.80
2019-05-03T14:53:26.771Z,4.63
2019-05-03T14:56:15.032Z,5.33
2019-05-03T14:59:05.118Z,4.47
2019-05-03T15:01:43.997Z,4.53
2019-05-03T15:04:15.124Z,5.40
2019-05-03T15:06:46.023Z,3.37
2019-05-03T15:09:19.056Z,3.10
2019-05-03T15:11:48.925Z,3.10
2019-05-03T15:14:19.600Z,3.60
2019-05-03T15:16:50.086Z,2.97
2019-05-03T15:19:20.310Z,4.37
2019-05-03T15:21:51.483Z,4.37
2019-05-03T15:24:21.713Z,3.77
2019-05-03T15:26:51.995Z,3.63
2019-05-03T15:29:22.234Z,4.20
2019-05-03T15:31:52.452Z,4.20
2019-05-03T15:34:22.752Z,4.80
2019-05-03T15:36:54.698Z,4.40
2019-05-03T15:39:25.967Z,3.80
2019-05-03T15:41:56.423Z,4.03
2019-05-03T15:44:45.649Z,3.97
2019-05-03T15:47:21.257Z,3.73
2019-05-03T15:49:51.473Z,3.30
2019-05-03T15:52:21.844Z,3.90
2019-05-03T15:54:52.443Z,4.33
2019-05-03T15:57:22.668Z,3.93
2019-05-03T15:59:54.974Z,4.13
2019-05-03T16:02:24.943Z,3.97
2019-05-03T16:04:58.459Z,4.43
2019-05-03T16:07:27.513Z,4.53
2019-05-03T16:09:57.859Z,4.50
2019-05-03T16:12:28.491Z,5.40
2019-05-03T16:14:59.003Z,4.43
2019-05-03T16:17:29.527Z,4.17
2019-05-03T16:19:59.904Z,4.30
2019-05-03T16:22:30.093Z,4.30
2019-05-03T16:25:00.417Z,4.23
2019-05-03T16:27:49.725Z,4.60
2019-05-03T16:30:45.451Z,4.10
2019-05-03T16:33:26.261Z,4.40
2019-05-03T16:35:47.795Z,5.20
2019-05-03T16:38:18.025Z,4.97
2019-05-03T16:40:48.412Z,5.20
2019-05-03T16:43:18.968Z,4.57
2019-05-03T16:45:49.370Z,4.57
2019-05-03T16:48:19.539Z,5.30
2019-05-03T16:50:49.789Z,6.63
2019-05-03T16:53:21.275Z,5.33
2019-05-03T16:55:51.551Z,5.80
2019-05-03T16:58:24.612Z,5.97
2019-05-03T17:00:55.352Z,4.73
2019-05-03T17:03:38.597Z,5.00
2019-05-03T17:06:19.628Z,4.67
2019-05-03T17:09:16.061Z,5.07
2019-05-03T17:12:07.931Z,5.07
2019-05-03T17:14:38.559Z,5.70
2019-05-03T17:17:10.236Z,5.37
2019-05-03T17:19:40.493Z,5.70
2019-05-03T17:22:10.861Z,4.97
2019-05-03T17:24:41.237Z,5.93
2019-05-03T17:27:11.545Z,5.10
2019-05-03T17:29:42.245Z,5.47
2019-05-03T17:32:12.506Z,5.40
2019-05-03T17:34:42.798Z,6.03
2019-05-03T17:37:12.908Z,5.00
2019-05-03T17:40:02.488Z,5.37
2019-05-03T17:42:50.926Z,5.57
2019-05-03T17:45:26.822Z,5.37
2019-05-03T17:47:57.102Z,4.73
2019-05-03T17:50:27.951Z,4.60
2019-05-03T17:53:25.906Z,4.83
2019-05-03T17:56:04.644Z,4.80
2019-05-03T17:59:06.068Z,5.43
2019-05-03T18:01:55.413Z,5.67
2019-05-03T18:04:51.086Z,5.00
2019-05-03T18:07:46.363Z,5.33
2019-05-03T18:10:16.948Z,5.50
2019-05-03T18:12:47.228Z,5.33
2019-05-03T18:15:17.394Z,5.47
2019-05-03T18:17:48.048Z,5.87
2019-05-03T18:20:18.260Z,5.90
2019-05-03T18:22:48.464Z,5.40
2019-05-03T18:25:18.652Z,5.93
2019-05-03T18:27:49.159Z,5.40
2019-05-03T18:30:20.297Z,5.87
2019-05-03T18:32:51.953Z,5.37
2019-05-03T18:35:22.152Z,5.93
2019-05-03T18:38:01.461Z,5.90
2019-05-03T18:40:32.848Z,5.50
2019-05-03T18:43:08.140Z,6.27
2019-05-03T18:46:06.773Z,5.13
2019-05-03T18:48:37.342Z,5.53
2019-05-03T18:51:07.539Z,5.27
2019-05-03T18:53:37.827Z,4.73
2019-05-03T18:56:07.951Z,4.83
2019-05-03T18:58:38.588Z,5.03
2019-05-03T19:01:09.046Z,5.00
2019-05-03T19:03:39.234Z,4.87
2019-05-03T19:06:10.271Z,5.40
2019-05-03T19:08:58.110Z,5.10
2019-05-03T19:11:35.212Z,4.97
2019-05-03T19:14:07.112Z,5.10
2019-05-03T19:16:46.755Z,5.20
2019-05-03T19:19:18.498Z,5.70
2019-05-03T19:21:49.647Z,5.10
2019-05-03T19:24:19.972Z,5.20
2019-05-03T19:26:50.251Z,5.40
2019-05-03T19:29:20.558Z,5.23
2019-05-03T19:31:50.837Z,4.83
2019-05-03T19:34:21.777Z,4.13
2019-05-03T19:36:52.204Z,4.23
2019-05-03T19:39:22.905Z,5.60
2019-05-03T19:41:55.283Z,5.43
2019-05-03T19:44:25.716Z,4.60
2019-05-03T19:46:56.065Z,6.47
2019-05-03T19:49:26.956Z,4.87
2019-05-03T19:51:57.466Z,5.20
2019-05-03T19:54:27.851Z,4.63
2019-05-03T19:56:58.041Z,4.60
2019-05-03T19:59:46.235Z,4.60
2019-05-03T20:02:35.145Z,4.37
2019-05-03T20:05:29.537Z,3.97
2019-05-03T20:08:16.681Z,3.63
2019-05-03T20:10:47.707Z,4.20
2019-05-03T20:13:17.925Z,4.20
2019-05-03T20:15:48.159Z,4.13
2019-05-03T20:18:18.383Z,3.60
2019-05-03T20:20:48.615Z,3.63
2019-05-03T20:23:18.786Z,4.40
2019-05-03T20:25:49.031Z,4.10
2019-05-03T20:28:19.129Z,4.43
2019-05-03T20:30:49.347Z,4.10
2019-05-03T20:33:19.597Z,4.63
2019-05-03T20:35:50.169Z,4.60
2019-05-03T20:38:20.557Z,4.70
2019-05-03T20:40:50.763Z,4.17
2019-05-03T20:43:40.117Z,4.20
2019-05-03T20:46:15.097Z,4.23
2019-05-03T20:48:47.465Z,4.90
2019-05-03T20:51:17.773Z,4.33
2019-05-03T20:53:48.349Z,4.20
2019-05-03T20:56:18.494Z,4.20
2019-05-03T20:58:48.685Z,4.67
2019-05-03T21:01:19.273Z,4.27
2019-05-03T21:03:49.499Z,4.50
2019-05-03T21:06:32.124Z,4.20
2019-05-03T21:08:53.594Z,4.97
2019-05-03T21:11:25.180Z,4.07
2019-05-03T21:13:55.499Z,4.30
2019-05-03T21:16:50.827Z,4.27
2019-05-03T21:19:46.359Z,4.60
2019-05-03T21:22:24.819Z,5.30
2019-05-03T21:25:08.051Z,4.50
2019-05-03T21:27:38.386Z,4.60
2019-05-03T21:30:08.575Z,6.00
2019-05-03T21:32:38.830Z,5.53
2019-05-03T21:35:09.008Z,6.40
2019-05-03T21:37:39.249Z,7.47
2019-05-03T21:40:09.663Z,7.77
2019-05-03T21:42:39.872Z,8.67
2019-05-03T21:45:12.544Z,9.40
2019-05-03T21:47:56.815Z,9.60
2019-05-03T21:50:27.410Z,10.13
2019-05-03T21:53:05.888Z,11.77
2019-05-03T21:55:35.604Z,12.00
2019-05-03T21:58:05.836Z,10.40
2019-05-03T22:00:54.700Z,10.87
2019-05-03T22:03:25.600Z,10.60
2019-05-03T22:05:58.062Z,9.77
2019-05-03T22:08:28.323Z,9.47
2019-05-03T22:10:58.787Z,8.70
2019-05-03T22:13:29.311Z,8.00
2019-05-03T22:16:12.797Z,7.57
2019-05-03T22:18:45.411Z,6.90
2019-05-03T22:21:34.688Z,7.30
2019-05-03T22:24:26.380Z,7.30
2019-05-03T22:27:06.981Z,7.07
2019-05-03T22:29:37.334Z,8.00
2019-05-03T22:32:07.591Z,7.67
2019-05-03T22:34:38.072Z,6.27
2019-05-03T22:37:08.585Z,5.10
2019-05-03T22:39:38.796Z,3.60
2019-05-03T22:42:09.025Z,3.70
2019-05-03T22:44:39.242Z,2.97
2019-05-03T22:47:09.888Z,2.60
2019-05-03T22:49:40.490Z,2.47
2019-05-03T22:52:10.800Z,2.33
2019-05-03T22:54:41.070Z,2.30
2019-05-03T22:57:11.390Z,2.80
2019-05-03T22:59:44.717Z,2.43
2019-05-03T23:02:17.105Z,2.40
2019-05-03T23:04:47.363Z,2.60
2019-05-03T23:07:17.502Z,2.57
2019-05-03T23:09:47.776Z,3.00
2019-05-03T23:12:18.336Z,3.10
2019-05-03T23:14:48.632Z,3.20
2019-05-03T23:17:18.788Z,2.63
2019-05-03T23:19:56.657Z,2.93
2019-05-03T23:22:29.785Z,2.70
2019-05-03T23:24:59.939Z,3.23
2019-05-03T23:27:30.055Z,2.90
2019-05-03T23:30:00.283Z,2.97
2019-05-03T23:32:30.779Z,3.80
2019-05-03T23:35:01.324Z,3.67
2019-05-03T23:37:34.459Z,3.73
2019-05-03T23:40:06.197Z,4.07
2019-05-03T23:42:36.728Z,3.50
2019-05-03T23:45:07.771Z,4.13
2019-05-03T23:47:42.420Z,4.30
2019-05-03T23:50:16.379Z,4.03
2019-05-03T23:52:46.560Z,4.63
2019-05-03T23:55:41.496Z,4.03
2019-05-03T23:58:12.101Z,3.70
